Time;durP1;ratioP1;P1;durP2;ratioP2;P2;SDS_P1;SDS_P2;PMS_P1;PMS_P2;Temp;Humidity;BMP_temperature;BMP_pressure;BME280_temperature;BME280_humidity;BME280_pressure;Samples;Min_cycle;Max_cycle;Signal;HPM_P1;HPM_P2
2023/02/26 00:00:11;;;;;;;1.67;1.13;;;2.10;98.00;;;;;;5014914;28;20463;-69
2023/02/26 00:02:39;;;;;;;3.17;1.73;;;2.10;98.00;;;;;;5013981;28;20473;-69
2023/02/26 00:05:08;;;;;;;1.40;1.30;;;2.00;98.00;;;;;;5015087;28;20459;-69
2023/02/26 00:07:35;;;;;;;1.40;1.20;;;2.00;98.00;;;;;;5013767;28;20458;-69
2023/02/26 00:10:02;;;;;;;1.60;1.40;;;2.10;98.00;;;;;;5014964;28;20513;-69
2023/02/26 00:12:30;;;;;;;1.27;1.20;;;2.00;98.00;;;;;;5014919;28;20463;-69
2023/02/26 00:14:58;;;;;;;1.80;1.33;;;2.00;98.00;;;;;;5014770;28;20842;-69
2023/02/26 00:17:33;;;;;;;1.57;1.17;;;2.10;98.00;;;;;;5014759;28;20452;-69
2023/02/26 00:20:03;;;;;;;1.40;1.33;;;2.10;98.00;;;;;;5013432;28;20462;-69
2023/02/26 00:22:31;;;;;;;1.30;1.20;;;1.80;98.00;;;;;;5014856;28;20989;-69
2023/02/26 00:24:58;;;;;;;1.40;1.20;;;1.80;98.00;;;;;;5014493;28;20537;-68
2023/02/26 00:27:25;;;;;;;1.20;1.10;;;1.70;98.00;;;;;;5014672;28;20470;-69
2023/02/26 00:29:53;;;;;;;1.60;1.20;;;1.70;98.00;;;;;;5011922;28;20468;-69
2023/02/26 00:32:21;;;;;;;1.53;1.50;;;1.60;98.00;;;;;;5014623;28;20460;-68
2023/02/26 00:34:49;;;;;;;1.50;1.40;;;1.60;98.00;;;;;;5014815;28;20759;-69
2023/02/26 00:37:28;;;;;;;4.50;2.40;;;1.30;98.00;;;;;;5014557;28;20460;-69
2023/02/26 00:40:08;;;;;;;2.60;1.70;;;1.10;98.00;;;;;;5014399;28;20570;-69
2023/02/26 00:42:35;;;;;;;1.90;1.83;;;1.10;98.00;;;;;;5014266;28;20971;-68
2023/02/26 00:45:04;;;;;;;5.07;1.57;;;1.10;98.00;;;;;;5014055;28;20456;-68
2023/02/26 00:47:37;;;;;;;1.30;1.30;;;1.10;98.00;;;;;;5012419;28;20483;-69
2023/02/26 00:50:17;;;;;;;2.90;1.67;;;1.00;98.00;;;;;;5014374;28;20463;-69
2023/02/26 00:52:53;;;;;;;1.70;1.63;;;1.00;98.00;;;;;;5012841;28;20487;-69
2023/02/26 00:55:20;;;;;;;1.87;1.70;;;1.00;98.00;;;;;;5013824;28;20513;-68
2023/02/26 00:57:47;;;;;;;2.57;2.03;;;0.90;98.00;;;;;;5014271;28;20456;-69
2023/02/26 01:00:15;;;;;;;2.23;1.77;;;0.80;98.00;;;;;;5013710;28;20976;-68
2023/02/26 01:02:43;;;;;;;2.63;1.90;;;0.90;98.00;;;;;;5014121;28;20962;-69
2023/02/26 01:05:11;;;;;;;1.27;1.20;;;0.90;98.00;;;;;;5013911;28;20483;-69
2023/02/26 01:07:44;;;;;;;3.00;1.60;;;0.80;98.00;;;;;;5013878;28;20462;-70
2023/02/26 01:10:15;;;;;;;6.40;2.10;;;0.80;98.00;;;;;;5013621;28;20463;-69
2023/02/26 01:12:43;;;;;;;2.43;2.03;;;0.80;98.00;;;;;;5013913;28;20471;-69
2023/02/26 01:15:11;;;;;;;1.83;1.30;;;0.90;98.00;;;;;;5013695;28;20486;-69
2023/02/26 01:17:45;;;;;;;1.57;1.47;;;1.00;98.00;;;;;;5013843;28;20475;-68
2023/02/26 01:20:17;;;;;;;2.27;1.33;;;1.10;98.00;;;;;;5013801;28;20946;-69
2023/02/26 01:22:51;;;;;;;1.20;1.20;;;1.20;98.00;;;;;;5012721;28;20467;-69
2023/02/26 01:25:24;;;;;;;2.70;1.77;;;0.90;98.00;;;;;;5013567;28;21079;-69
2023/02/26 01:27:52;;;;;;;1.73;1.40;;;0.70;98.00;;;;;;5013773;28;20487;-69
2023/02/26 01:30:21;;;;;;;1.93;1.67;;;0.60;98.00;;;;;;5013513;28;20514;-69
2023/02/26 01:32:53;;;;;;;3.70;1.87;;;0.40;98.00;;;;;;5013891;28;20464;-68
2023/02/26 01:35:32;;;;;;;1.37;1.33;;;0.30;98.00;;;;;;5013431;28;20497;-69
2023/02/26 01:38:08;;;;;;;1.20;1.20;;;0.20;98.00;;;;;;5013378;28;20471;-69
2023/02/26 01:40:57;;;;;;;2.60;1.63;;;0.10;98.00;;;;;;5013227;28;20940;-69
2023/02/26 01:43:28;;;;;;;1.10;1.10;;;0.00;98.00;;;;;;5013286;28;20886;-69
2023/02/26 01:46:03;;;;;;;1.10;1.10;;;0.00;98.00;;;;;;5013194;28;20464;-69
2023/02/26 01:48:37;;;;;;;1.40;1.20;;;0.10;98.00;;;;;;5012804;28;20481;-69
2023/02/26 01:51:06;;;;;;;1.50;1.30;;;0.20;98.00;;;;;;5012689;28;20941;-69
2023/02/26 01:53:33;;;;;;;1.30;1.20;;;0.40;98.00;;;;;;5012518;28;21009;-68
2023/02/26 01:56:09;;;;;;;1.37;1.33;;;0.30;98.00;;;;;;5012740;28;20490;-69
2023/02/26 01:58:37;;;;;;;1.60;1.50;;;0.20;98.00;;;;;;5012034;28;20878;-69
2023/02/26 02:01:05;;;;;;;1.30;1.13;;;0.20;98.00;;;;;;5012902;28;20470;-69
2023/02/26 02:03:36;;;;;;;1.20;1.20;;;0.10;98.00;;;;;;5012955;28;20458;-69
2023/02/26 02:06:07;;;;;;;2.50;1.50;;;0.20;98.00;;;;;;5012905;28;20455;-69
2023/02/26 02:08:35;;;;;;;1.50;1.30;;;0.10;98.00;;;;;;5011685;28;20517;-69
2023/02/26 02:11:08;;;;;;;1.47;1.20;;;0.20;98.00;;;;;;5012913;28;20463;-69
2023/02/26 02:13:48;;;;;;;2.17;1.30;;;0.00;98.00;;;;;;5012864;28;20475;-69
2023/02/26 02:16:24;;;;;;;1.10;1.00;;;-0.10;98.00;;;;;;5012602;28;20486;-69
2023/02/26 02:18:58;;;;;;;1.30;1.20;;;-0.20;98.00;;;;;;5012730;28;20549;-69
2023/02/26 02:21:58;;;;;;;1.93;1.30;;;-0.20;98.00;;;;;;5012683;28;20542;-69
2023/02/26 02:24:34;;;;;;;2.27;1.50;;;-0.20;98.00;;;;;;5010137;28;20481;-69
2023/02/26 02:27:12;;;;;;;3.00;1.30;;;-0.30;98.00;;;;;;5012533;28;20688;-69
2023/02/26 02:30:01;;;;;;;1.20;1.10;;;-0.30;98.00;;;;;;5011556;28;20466;-69
2023/02/26 02:32:34;;;;;;;1.40;1.10;;;-0.40;98.00;;;;;;5012708;28;20523;-69
2023/02/26 02:35:09;;;;;;;2.27;1.60;;;-0.20;98.00;;;;;;5012349;28;20474;-69
2023/02/26 02:37:41;;;;;;;1.10;1.10;;;-0.20;98.00;;;;;;5012335;28;20469;-69
2023/02/26 02:40:12;;;;;;;1.40;1.10;;;-0.40;98.00;;;;;;5012166;28;20466;-69
2023/02/26 02:42:44;;;;;;;2.13;1.30;;;-0.30;98.00;;;;;;5012245;28;21083;-69
2023/02/26 02:45:15;;;;;;;1.10;1.10;;;-0.30;98.00;;;;;;5012056;28;20954;-68
2023/02/26 02:47:48;;;;;;;1.30;1.17;;;-0.30;98.00;;;;;;5012079;28;20529;-69
2023/02/26 02:50:21;;;;;;;1.47;1.33;;;-0.30;98.00;;;;;;5012149;28;20474;-68
2023/02/26 02:52:52;;;;;;;1.20;1.07;;;-0.20;98.00;;;;;;5012129;28;20501;-69
2023/02/26 02:55:24;;;;;;;2.77;1.43;;;-0.30;98.00;;;;;;5011958;28;20486;-69
2023/02/26 02:57:58;;;;;;;1.63;1.30;;;-0.20;98.00;;;;;;5012151;28;20690;-69
2023/02/26 03:00:28;;;;;;;3.17;2.00;;;-0.20;98.00;;;;;;5011885;28;20471;-69
2023/02/26 03:03:03;;;;;;;1.50;1.33;;;-0.10;98.00;;;;;;5012138;28;20932;-69
2023/02/26 03:05:30;;;;;;;1.47;1.27;;;-0.20;98.00;;;;;;5012124;28;20539;-69
2023/02/26 03:08:00;;;;;;;1.43;1.40;;;-0.20;98.00;;;;;;5012194;28;20452;-69
2023/02/26 03:10:28;;;;;;;3.07;2.00;;;-0.50;98.00;;;;;;5015230;28;20467;-69
2023/02/26 03:12:55;;;;;;;1.73;1.20;;;-0.50;98.00;;;;;;5016249;28;20499;-69
2023/02/26 03:15:31;;;;;;;1.57;1.27;;;-0.50;98.00;;;;;;5014863;28;20486;-69
2023/02/26 03:18:05;;;;;;;1.60;1.47;;;-0.50;98.00;;;;;;5016109;28;20473;-69
2023/02/26 03:20:35;;;;;;;1.43;1.30;;;-0.60;98.00;;;;;;5016045;28;20471;-69
2023/02/26 03:23:09;;;;;;;1.40;1.40;;;-0.70;98.00;;;;;;5016140;28;20514;-69
2023/02/26 03:25:45;;;;;;;1.10;1.00;;;-0.70;98.00;;;;;;5016259;28;20546;-69
2023/02/26 03:28:19;;;;;;;1.20;1.10;;;-0.80;98.00;;;;;;5015928;28;20790;-69
2023/02/26 03:30:50;;;;;;;2.37;1.57;;;-0.90;98.00;;;;;;5016179;28;20600;-69
2023/02/26 03:33:27;;;;;;;1.43;1.10;;;-0.80;98.00;;;;;;5015780;28;20960;-69
2023/02/26 03:35:58;;;;;;;1.20;1.17;;;-0.90;98.00;;;;;;5015697;28;20494;-69
2023/02/26 03:38:37;;;;;;;1.40;1.23;;;-0.90;98.00;;;;;;5015482;28;20462;-69
2023/02/26 03:41:09;;;;;;;1.20;1.10;;;-0.90;98.00;;;;;;5014479;28;20458;-69
2023/02/26 03:43:41;;;;;;;1.20;1.00;;;-0.90;98.00;;;;;;5015483;28;20467;-69
2023/02/26 03:46:17;;;;;;;1.40;1.20;;;-0.90;98.00;;;;;;5015521;28;20516;-68
2023/02/26 03:48:47;;;;;;;1.20;1.10;;;-0.70;98.00;;;;;;5015484;28;20466;-69
2023/02/26 03:51:15;;;;;;;1.70;1.30;;;-0.90;98.00;;;;;;5015460;28;20465;-69
2023/02/26 03:53:49;;;;;;;2.80;1.50;;;-0.90;98.00;;;;;;5015314;28;20458;-69
2023/02/26 03:56:20;;;;;;;1.77;1.27;;;-0.80;98.00;;;;;;5014992;28;20977;-69
2023/02/26 03:58:47;;;;;;;1.40;1.17;;;-0.80;98.00;;;;;;5015281;28;20473;-69
2023/02/26 04:01:19;;;;;;;2.03;1.30;;;-0.90;98.00;;;;;;5015222;28;20462;-69
2023/02/26 04:03:56;;;;;;;1.10;1.00;;;-0.90;98.00;;;;;;5015174;28;20473;-69
2023/02/26 04:06:24;;;;;;;1.20;1.10;;;-1.00;98.00;;;;;;5015211;28;20484;-69
2023/02/26 04:08:51;;;;;;;1.10;1.00;;;-1.00;98.00;;;;;;5015044;28;20462;-68
2023/02/26 04:11:20;;;;;;;1.67;1.20;;;-1.10;98.00;;;;;;5014864;28;20454;-69
2023/02/26 04:13:48;;;;;;;3.60;1.40;;;-1.10;98.00;;;;;;5015078;28;20473;-69
2023/02/26 04:16:16;;;;;;;2.20;1.27;;;-1.20;98.00;;;;;;5014997;28;20521;-68
2023/02/26 04:18:43;;;;;;;1.50;1.30;;;-1.20;98.00;;;;;;5015080;28;20457;-69
2023/02/26 04:21:13;;;;;;;1.20;1.20;;;-1.20;98.00;;;;;;5014076;28;20488;-69
2023/02/26 04:23:40;;;;;;;2.13;1.70;;;-1.20;98.00;;;;;;5015062;28;20932;-69
2023/02/26 04:26:07;;;;;;;1.87;1.57;;;-1.30;98.00;;;;;;5014787;28;20473;-69
2023/02/26 04:28:36;;;;;;;1.10;1.10;;;-1.40;98.00;;;;;;5014740;28;20556;-69
2023/02/26 04:31:04;;;;;;;1.60;1.10;;;-1.40;98.00;;;;;;5014775;28;20453;-69
2023/02/26 04:33:32;;;;;;;1.30;1.30;;;-1.40;98.00;;;;;;5014616;28;20492;-69
2023/02/26 04:35:59;;;;;;;1.37;1.20;;;-1.30;98.00;;;;;;5014280;28;20486;-69
2023/02/26 04:38:28;;;;;;;1.10;1.03;;;-1.40;98.00;;;;;;5014399;28;20808;-69
2023/02/26 04:40:55;;;;;;;1.20;1.10;;;-1.40;98.00;;;;;;5014268;28;20457;-68
2023/02/26 04:43:22;;;;;;;1.20;1.20;;;-1.30;98.00;;;;;;5014437;28;20465;-68
2023/02/26 04:45:50;;;;;;;2.43;1.67;;;-1.30;98.00;;;;;;5014408;28;20812;-69
2023/02/26 04:48:18;;;;;;;2.43;1.40;;;-1.40;98.00;;;;;;5014304;28;20929;-68
2023/02/26 04:50:45;;;;;;;1.83;1.33;;;-1.50;98.00;;;;;;5012982;28;20462;-68
2023/02/26 04:53:12;;;;;;;1.30;1.30;;;-1.40;98.00;;;;;;5014067;28;20450;-69
2023/02/26 04:55:41;;;;;;;1.20;1.20;;;-1.40;98.00;;;;;;5013922;28;20465;-69
2023/02/26 04:58:08;;;;;;;1.20;1.20;;;-1.40;98.00;;;;;;5014241;28;20465;-68
2023/02/26 05:00:36;;;;;;;1.50;1.40;;;-1.30;98.00;;;;;;5014007;28;20474;-68
2023/02/26 05:03:03;;;;;;;1.33;1.20;;;-1.50;98.00;;;;;;5014096;28;20839;-68
2023/02/26 05:05:30;;;;;;;1.10;1.00;;;-1.60;98.00;;;;;;5014000;28;20463;-69
2023/02/26 05:07:57;;;;;;;2.17;1.17;;;-1.40;98.00;;;;;;5014105;28;20470;-68
2023/02/26 05:10:25;;;;;;;2.33;1.50;;;-1.60;98.00;;;;;;5014079;28;20471;-68
2023/02/26 05:12:53;;;;;;;1.47;1.10;;;-1.60;98.00;;;;;;5014045;28;20462;-69
2023/02/26 05:15:21;;;;;;;1.27;1.27;;;-1.60;98.00;;;;;;5013758;28;20863;-69
2023/02/26 05:17:48;;;;;;;1.40;1.13;;;-1.70;98.00;;;;;;5013925;28;20487;-69
2023/02/26 05:20:15;;;;;;;1.43;1.43;;;-1.60;98.00;;;;;;5030126;28;20449;-69
2023/02/26 05:22:42;;;;;;;2.50;1.57;;;-1.60;98.00;;;;;;5033665;28;20864;-68
2023/02/26 05:25:12;;;;;;;1.47;1.20;;;-1.60;98.00;;;;;;5033488;28;20490;-68
2023/02/26 05:27:41;;;;;;;2.20;2.00;;;-1.50;98.00;;;;;;5033350;28;20466;-69
2023/02/26 05:30:14;;;;;;;5.80;1.60;;;-1.60;98.00;;;;;;5033255;28;20539;-68
2023/02/26 05:32:42;;;;;;;1.53;1.30;;;-1.70;98.00;;;;;;5032979;28;20451;-69
2023/02/26 05:35:10;;;;;;;4.23;1.50;;;-1.60;98.00;;;;;;5033107;28;20454;-69
2023/02/26 05:37:37;;;;;;;4.10;1.40;;;-1.40;98.00;;;;;;5032816;28;21021;-68
2023/02/26 05:40:09;;;;;;;2.03;1.93;;;-1.50;98.00;;;;;;5032941;28;20895;-69
2023/02/26 05:42:36;;;;;;;1.50;1.10;;;-1.70;98.00;;;;;;5033185;28;20460;-69
2023/02/26 05:45:04;;;;;;;2.10;1.33;;;-1.80;98.00;;;;;;5032652;28;20977;-69
2023/02/26 05:47:34;;;;;;;1.40;1.10;;;-1.70;98.00;;;;;;5032939;28;20507;-68
2023/02/26 05:50:01;;;;;;;1.30;1.30;;;-1.70;98.00;;;;;;5032954;28;20473;-68
2023/02/26 05:52:28;;;;;;;1.10;1.07;;;-1.70;98.00;;;;;;5032815;28;20519;-68
2023/02/26 05:54:55;;;;;;;1.23;1.20;;;-1.70;98.00;;;;;;5032655;28;20993;-69
2023/02/26 05:57:23;;;;;;;1.67;1.50;;;-1.60;98.00;;;;;;5015109;28;20713;-69
2023/02/26 05:59:51;;;;;;;1.93;1.67;;;-1.50;98.00;;;;;;5032660;28;20529;-69
2023/02/26 06:02:18;;;;;;;1.90;1.60;;;-1.50;98.00;;;;;;5032760;28;20453;-68
2023/02/26 06:04:46;;;;;;;2.13;1.87;;;-1.60;98.00;;;;;;5032705;28;20457;-69
2023/02/26 06:07:14;;;;;;;3.20;1.77;;;-1.60;98.00;;;;;;5032664;28;20471;-69
2023/02/26 06:09:43;;;;;;;5.53;1.60;;;-1.70;98.00;;;;;;5032640;28;20531;-68
2023/02/26 06:12:10;;;;;;;2.13;1.30;;;-1.80;98.00;;;;;;5032618;28;20464;-69
2023/02/26 06:14:37;;;;;;;1.30;1.20;;;-1.80;98.00;;;;;;5032633;28;20461;-69
2023/02/26 06:17:05;;;;;;;1.93;1.30;;;-1.90;98.00;;;;;;5032761;28;20874;-68
2023/02/26 06:19:32;;;;;;;1.40;1.40;;;-1.90;98.00;;;;;;5032873;28;20859;-68
2023/02/26 06:22:01;;;;;;;1.50;1.43;;;-1.80;98.00;;;;;;5032673;28;20482;-69
2023/02/26 06:24:28;;;;;;;1.20;1.17;;;-1.60;98.00;;;;;;5032136;28;20457;-69
2023/02/26 06:26:55;;;;;;;1.57;1.37;;;-1.60;98.00;;;;;;5032085;28;20465;-69
2023/02/26 06:29:22;;;;;;;1.30;1.20;;;-1.50;98.00;;;;;;5032108;28;20461;-69
2023/02/26 06:31:49;;;;;;;2.63;1.97;;;-1.50;98.00;;;;;;5031874;28;20448;-68
2023/02/26 06:34:17;;;;;;;1.47;1.43;;;-1.50;98.00;;;;;;5031510;28;20473;-69
2023/02/26 06:36:45;;;;;;;6.73;1.87;;;-1.40;98.00;;;;;;5031391;28;20492;-69
2023/02/26 06:39:13;;;;;;;1.53;1.43;;;-1.30;98.00;;;;;;5031300;28;20466;-69
2023/02/26 06:41:40;;;;;;;1.97;1.83;;;-1.10;98.00;;;;;;5031285;28;20456;-68
2023/02/26 06:44:08;;;;;;;3.93;2.00;;;-1.20;98.00;;;;;;5031027;28;20495;-68
2023/02/26 06:46:35;;;;;;;1.87;1.43;;;-1.20;98.00;;;;;;5013782;28;20461;-68
2023/02/26 06:49:02;;;;;;;3.37;1.30;;;-1.20;98.00;;;;;;5031425;28;20452;-68
2023/02/26 06:51:29;;;;;;;2.07;1.67;;;-1.20;98.00;;;;;;5031146;28;20492;-69
2023/02/26 06:53:57;;;;;;;1.40;1.30;;;-1.20;98.00;;;;;;5031369;28;20974;-69
2023/02/26 06:56:26;;;;;;;1.63;1.47;;;-1.10;98.00;;;;;;4996838;28;20474;-69
2023/02/26 06:58:53;;;;;;;4.27;1.80;;;-1.20;98.00;;;;;;5031183;28;20482;-69
2023/02/26 07:01:20;;;;;;;3.77;2.23;;;-1.20;98.00;;;;;;5031316;28;20468;-62
2023/02/26 07:03:47;;;;;;;1.43;1.30;;;-1.20;98.00;;;;;;5031391;28;20461;-63
2023/02/26 07:06:14;;;;;;;1.30;1.10;;;-1.00;98.00;;;;;;5031194;28;21000;-64
2023/02/26 07:08:41;;;;;;;1.40;1.30;;;-0.80;98.00;;;;;;5031420;28;20821;-63
2023/02/26 07:11:09;;;;;;;4.03;1.93;;;-0.70;98.00;;;;;;5031921;28;20454;-63
2023/02/26 07:13:37;;;;;;;1.87;1.77;;;-0.60;98.00;;;;;;5030388;28;20454;-63
2023/02/26 07:16:06;;;;;;;7.33;1.70;;;-0.50;98.00;;;;;;5031732;28;20484;-62
2023/02/26 07:18:34;;;;;;;2.50;1.50;;;-0.50;98.00;;;;;;5031805;28;20522;-63
2023/02/26 07:21:03;;;;;;;3.20;2.50;;;-0.40;98.00;;;;;;5013965;28;20882;-63
2023/02/26 07:23:30;;;;;;;1.37;1.33;;;-0.40;98.00;;;;;;5031441;28;20476;-62
2023/02/26 07:25:57;;;;;;;4.70;2.33;;;-0.40;98.00;;;;;;5031475;28;20474;-62
2023/02/26 07:28:25;;;;;;;1.93;1.63;;;-0.40;98.00;;;;;;5031501;28;20462;-62
2023/02/26 07:30:54;;;;;;;2.13;1.20;;;-0.30;98.00;;;;;;5031574;28;20453;-62
2023/02/26 07:33:22;;;;;;;3.70;2.00;;;-0.10;98.00;;;;;;5031359;28;20466;-63
2023/02/26 07:35:49;;;;;;;1.17;1.10;;;0.10;98.00;;;;;;5014194;28;20457;-63
2023/02/26 07:38:16;;;;;;;2.17;1.67;;;0.00;98.00;;;;;;5013674;28;20485;-63
2023/02/26 07:40:43;;;;;;;2.80;1.50;;;0.10;98.00;;;;;;5031475;28;20453;-62
2023/02/26 07:43:10;;;;;;;1.60;1.20;;;0.00;98.00;;;;;;5031395;28;20469;-63
2023/02/26 07:45:37;;;;;;;2.27;2.13;;;0.20;98.00;;;;;;5031263;28;20461;-62
2023/02/26 07:48:06;;;;;;;2.73;1.80;;;0.30;98.00;;;;;;5031369;28;20469;-62
2023/02/26 07:50:33;;;;;;;3.43;2.33;;;0.40;98.00;;;;;;5031360;28;20458;-62
2023/02/26 07:53:00;;;;;;;1.43;1.23;;;0.50;98.00;;;;;;5013924;28;20505;-62
2023/02/26 07:55:27;;;;;;;1.80;1.20;;;0.60;98.00;;;;;;5031074;28;20468;-63
2023/02/26 07:57:54;;;;;;;3.90;2.40;;;0.70;98.00;;;;;;5035183;28;20495;-62
2023/02/26 08:00:22;;;;;;;5.03;2.47;;;0.60;98.00;;;;;;5034861;28;20477;-63
2023/02/26 08:02:49;;;;;;;3.93;1.40;;;0.60;98.00;;;;;;5035228;28;20457;-63
2023/02/26 08:05:18;;;;;;;2.50;2.33;;;0.70;98.00;;;;;;5034786;28;20473;-62
2023/02/26 08:07:45;;;;;;;3.83;1.87;;;0.80;98.00;;;;;;5035126;28;21005;-63
2023/02/26 08:10:13;;;;;;;1.67;1.57;;;0.80;98.00;;;;;;5034850;28;20467;-62
2023/02/26 08:12:40;;;;;;;2.37;1.90;;;0.80;98.00;;;;;;5035160;28;20462;-63
2023/02/26 08:15:08;;;;;;;1.20;1.20;;;0.90;98.00;;;;;;5017135;28;20604;-63
2023/02/26 08:17:35;;;;;;;2.50;1.57;;;1.00;98.00;;;;;;5017323;28;20493;-63
2023/02/26 08:20:03;;;;;;;1.83;1.70;;;1.00;98.00;;;;;;5034600;28;20466;-63
2023/02/26 08:22:32;;;;;;;3.77;2.90;;;1.00;98.00;;;;;;5034658;28;20456;-63
2023/02/26 08:25:00;;;;;;;15.10;2.13;;;1.10;98.00;;;;;;5034285;28;20947;-63
2023/02/26 08:27:27;;;;;;;2.40;1.77;;;1.10;98.00;;;;;;5016532;28;20932;-63
2023/02/26 08:29:54;;;;;;;1.43;1.30;;;1.00;98.00;;;;;;5034259;28;20464;-64
2023/02/26 08:32:22;;;;;;;2.53;1.50;;;0.90;98.00;;;;;;5034348;28;20462;-63
2023/02/26 08:34:49;;;;;;;1.50;1.40;;;0.70;98.00;;;;;;5034325;28;20478;-63
2023/02/26 08:37:16;;;;;;;2.57;1.93;;;0.60;98.00;;;;;;5034378;28;20485;-63
2023/02/26 08:39:45;;;;;;;5.73;2.00;;;0.70;98.00;;;;;;5034283;28;20460;-62
2023/02/26 08:42:15;;;;;;;2.13;1.53;;;0.80;98.00;;;;;;5034207;28;20466;-62
2023/02/26 08:44:42;;;;;;;4.10;1.90;;;0.80;98.00;;;;;;5034325;28;20998;-63
2023/02/26 08:47:09;;;;;;;1.70;1.23;;;0.80;98.00;;;;;;5034028;28;20484;-63
2023/02/26 08:49:40;;;;;;;2.47;1.67;;;0.80;98.00;;;;;;5034259;28;20472;-64
2023/02/26 08:52:07;;;;;;;1.93;1.57;;;0.90;98.00;;;;;;5034087;28;20817;-62
2023/02/26 08:54:35;;;;;;;1.57;1.50;;;1.00;98.00;;;;;;5028757;28;20450;-63
2023/02/26 08:57:04;;;;;;;1.30;1.20;;;1.20;98.00;;;;;;5014050;28;20459;-62
2023/02/26 08:59:31;;;;;;;1.10;1.07;;;1.20;98.00;;;;;;5017262;28;20532;-63
2023/02/26 09:02:00;;;;;;;1.50;1.43;;;1.30;98.00;;;;;;5016480;28;20488;-63
2023/02/26 09:04:28;;;;;;;2.73;1.63;;;1.30;98.00;;;;;;5033996;28;20981;-63
2023/02/26 09:06:55;;;;;;;2.90;1.30;;;1.40;98.00;;;;;;5033274;28;20498;-63
2023/02/26 09:09:22;;;;;;;2.47;1.67;;;1.40;98.00;;;;;;5027735;28;20486;-63
2023/02/26 09:11:49;;;;;;;1.20;1.10;;;1.40;98.00;;;;;;5019889;28;20454;-63
2023/02/26 09:14:18;;;;;;;2.03;1.50;;;1.30;98.00;;;;;;5024018;28;20454;-64
2023/02/26 09:16:45;;;;;;;3.20;1.40;;;1.40;98.00;;;;;;5016503;28;20820;-62
2023/02/26 09:19:12;;;;;;;3.53;1.60;;;1.50;98.00;;;;;;5013752;28;20491;-64
2023/02/26 09:21:39;;;;;;;2.07;1.90;;;1.70;98.00;;;;;;5013580;28;20451;-62
2023/02/26 09:24:08;;;;;;;1.63;1.53;;;1.90;98.00;;;;;;5013526;28;20462;-63
2023/02/26 09:26:37;;;;;;;1.87;1.40;;;1.90;98.00;;;;;;5013710;28;20465;-62
2023/02/26 09:29:04;;;;;;;3.10;1.73;;;1.90;98.00;;;;;;5013725;28;20546;-62
2023/02/26 09:31:32;;;;;;;2.40;1.60;;;1.90;98.00;;;;;;5013045;28;20465;-61
2023/02/26 09:34:00;;;;;;;5.03;2.07;;;2.00;98.00;;;;;;5013546;28;20544;-61
2023/02/26 09:36:29;;;;;;;1.97;1.87;;;2.10;98.00;;;;;;5013475;28;20455;-62
2023/02/26 09:38:57;;;;;;;1.67;1.50;;;2.10;98.00;;;;;;5013470;28;21012;-62
2023/02/26 09:41:29;;;;;;;3.07;1.90;;;2.10;98.00;;;;;;5012102;28;20465;-60
2023/02/26 09:44:12;;;;;;;3.60;1.30;;;2.20;98.00;;;;;;5013347;28;20807;-63
2023/02/26 09:46:47;;;;;;;3.00;1.30;;;2.30;98.00;;;;;;5013200;28;20463;-63
2023/02/26 09:49:21;;;;;;;1.30;1.10;;;2.20;98.00;;;;;;5013218;28;20878;-61
2023/02/26 09:51:53;;;;;;;1.40;1.33;;;2.30;98.00;;;;;;5013155;28;20456;-63
2023/02/26 09:54:24;;;;;;;1.87;1.40;;;2.10;98.00;;;;;;5013153;28;20463;-62
2023/02/26 09:56:53;;;;;;;1.63;1.37;;;1.90;98.00;;;;;;5011640;28;20994;-63
2023/02/26 09:59:21;;;;;;;2.07;1.67;;;1.90;98.00;;;;;;5012493;28;20498;-62
2023/02/26 10:01:59;;;;;;;1.70;1.50;;;1.80;98.00;;;;;;5012743;28;20462;-63
2023/02/26 10:04:40;;;;;;;7.13;2.50;;;1.90;98.00;;;;;;5012937;28;20485;-66
2023/02/26 10:07:17;;;;;;;1.20;1.20;;;2.00;98.00;;;;;;5012846;28;20810;-68
2023/02/26 10:10:03;;;;;;;3.10;1.90;;;2.00;98.00;;;;;;5013017;28;20812;-66
2023/02/26 10:12:34;;;;;;;1.57;1.53;;;2.00;98.00;;;;;;5012437;28;20466;-65
2023/02/26 10:15:06;;;;;;;1.90;1.50;;;1.90;98.00;;;;;;5012910;28;20466;-64
2023/02/26 10:17:39;;;;;;;6.63;1.37;;;1.80;98.00;;;;;;5012577;28;20487;-64
2023/02/26 10:20:13;;;;;;;1.77;1.30;;;1.70;98.00;;;;;;5011550;28;20462;-65
2023/02/26 10:22:45;;;;;;;1.20;1.20;;;1.70;98.00;;;;;;5012626;28;20470;-65
2023/02/26 10:25:21;;;;;;;1.50;1.30;;;1.80;98.00;;;;;;5012475;28;20471;-64
2023/02/26 10:27:59;;;;;;;2.60;2.00;;;1.80;98.00;;;;;;5012471;28;20861;-64
2023/02/26 10:30:37;;;;;;;1.40;1.30;;;1.80;98.00;;;;;;5012409;28;20474;-64
2023/02/26 10:33:18;;;;;;;2.07;1.50;;;1.80;98.00;;;;;;5012318;28;21190;-64
2023/02/26 10:35:51;;;;;;;1.77;1.30;;;2.00;98.00;;;;;;5012243;28;20545;-64
2023/02/26 10:38:24;;;;;;;1.97;1.47;;;2.00;98.00;;;;;;5023674;28;20914;-65
2023/02/26 10:40:58;;;;;;;1.20;1.20;;;2.10;98.00;;;;;;5031617;28;20473;-64
2023/02/26 10:43:32;;;;;;;1.10;1.10;;;2.10;98.00;;;;;;5032081;28;20509;-64
2023/02/26 10:46:15;;;;;;;1.10;1.00;;;2.00;98.00;;;;;;5031773;28;20470;-65
2023/02/26 10:48:54;;;;;;;1.40;1.20;;;2.00;98.00;;;;;;5032150;28;20515;-64
2023/02/26 10:51:25;;;;;;;3.00;1.40;;;2.10;98.00;;;;;;5031748;28;20471;-65
2023/02/26 10:53:56;;;;;;;1.63;1.50;;;2.10;98.00;;;;;;5032043;28;20957;-65
2023/02/26 10:56:27;;;;;;;1.77;1.43;;;2.10;98.00;;;;;;5031836;28;20817;-64
2023/02/26 10:58:57;;;;;;;1.93;1.23;;;2.20;98.00;;;;;;5031681;28;20502;-65
2023/02/26 11:01:29;;;;;;;3.57;1.40;;;2.40;98.00;;;;;;5031840;28;20450;-64
2023/02/26 11:04:01;;;;;;;2.17;1.87;;;2.50;98.00;;;;;;5032009;28;20458;-64
2023/02/26 11:06:32;;;;;;;1.50;1.33;;;2.50;98.00;;;;;;5032095;28;20455;-65
2023/02/26 11:09:00;;;;;;;1.90;1.33;;;2.60;98.00;;;;;;5014734;28;20498;-64
2023/02/26 11:11:40;;;;;;;1.30;1.10;;;2.80;98.00;;;;;;5031954;28;20461;-65
2023/02/26 11:14:08;;;;;;;2.27;1.20;;;2.90;98.00;;;;;;5014172;28;20462;-64
2023/02/26 11:16:41;;;;;;;1.20;1.00;;;3.00;98.00;;;;;;5031957;28;20459;-64
2023/02/26 11:19:09;;;;;;;2.93;1.43;;;3.10;98.00;;;;;;5031430;28;20488;-64
2023/02/26 11:21:41;;;;;;;4.03;1.67;;;3.10;98.00;;;;;;5031695;28;20498;-64
2023/02/26 11:24:13;;;;;;;1.40;1.23;;;2.90;98.00;;;;;;5031606;28;20494;-65
2023/02/26 11:26:48;;;;;;;1.20;1.10;;;2.80;98.00;;;;;;5031627;28;20489;-65
2023/02/26 11:29:18;;;;;;;1.50;1.20;;;2.70;98.00;;;;;;5031553;28;20936;-64
2023/02/26 11:31:49;;;;;;;1.60;1.50;;;2.70;98.00;;;;;;5034990;28;20462;-65
2023/02/26 11:34:23;;;;;;;2.30;1.57;;;2.80;98.00;;;;;;5035556;28;20475;-65
2023/02/26 11:36:52;;;;;;;1.83;1.20;;;2.80;98.00;;;;;;5035361;28;20494;-64
2023/02/26 11:39:22;;;;;;;1.40;1.30;;;2.80;98.00;;;;;;5035350;28;20569;-65
2023/02/26 11:41:52;;;;;;;2.17;1.40;;;2.70;98.00;;;;;;5035137;28;20465;-64
2023/02/26 11:44:34;;;;;;;1.30;1.17;;;2.70;98.00;;;;;;5035198;28;20466;-63
2023/02/26 11:47:05;;;;;;;1.30;1.20;;;2.70;98.00;;;;;;5035291;28;20835;-63
2023/02/26 11:49:34;;;;;;;1.40;1.10;;;2.70;98.00;;;;;;5035146;28;20463;-63
2023/02/26 11:52:16;;;;;;;2.37;1.70;;;2.60;98.00;;;;;;5035272;28;20508;-64
2023/02/26 11:54:46;;;;;;;1.60;1.33;;;2.50;98.00;;;;;;5019270;28;20489;-64
2023/02/26 11:57:17;;;;;;;1.90;1.40;;;2.60;98.00;;;;;;5035150;28;20859;-64
2023/02/26 11:59:48;;;;;;;1.47;1.43;;;2.80;98.00;;;;;;5034886;28;20502;-65
2023/02/26 12:02:18;;;;;;;1.20;1.20;;;2.90;98.00;;;;;;5034964;28;20826;-65
2023/02/26 12:04:51;;;;;;;1.33;1.30;;;3.00;98.00;;;;;;5034718;28;20485;-65
2023/02/26 12:07:19;;;;;;;1.57;1.23;;;3.10;98.00;;;;;;5034677;28;20553;-65
2023/02/26 12:09:47;;;;;;;8.33;1.93;;;3.20;98.00;;;;;;5034552;28;20462;-65
2023/02/26 12:12:45;;;;;;;1.50;1.20;;;3.10;98.00;;;;;;5034926;28;20993;-64
2023/02/26 12:15:22;;;;;;;1.27;1.13;;;3.00;98.00;;;;;;5019485;28;20466;-65
2023/02/26 12:17:58;;;;;;;1.60;1.50;;;2.90;98.00;;;;;;5034584;28;20457;-65
2023/02/26 12:20:32;;;;;;;2.00;1.40;;;3.00;98.00;;;;;;5034708;28;20463;-64
2023/02/26 12:23:28;;;;;;;7.33;1.40;;;3.00;98.00;;;;;;5034454;28;20462;-64
2023/02/26 12:26:07;;;;;;;1.17;1.10;;;3.10;98.00;;;;;;5034422;28;20465;-64
2023/02/26 12:29:00;;;;;;;1.70;1.20;;;3.00;98.00;;;;;;5017910;28;20465;-65
2023/02/26 12:32:09;;;;;;;1.30;1.10;;;3.00;98.00;;;;;;5026247;28;20865;-64
2023/02/26 12:35:00;;;;;;;1.53;1.33;;;3.20;98.00;;;;;;5034351;28;20470;-64
2023/02/26 12:37:45;;;;;;;2.07;1.30;;;3.30;98.00;;;;;;5034324;28;20532;-64
2023/02/26 12:40:29;;;;;;;1.70;1.20;;;3.40;98.00;;;;;;5016350;28;20531;-65
2023/02/26 12:43:05;;;;;;;2.03;1.50;;;3.40;98.00;;;;;;5033388;28;20516;-65
2023/02/26 12:45:47;;;;;;;4.13;1.43;;;3.50;98.00;;;;;;5034091;28;20944;-65
2023/02/26 12:49:00;;;;;;;1.30;1.30;;;3.40;98.00;;;;;;5034213;28;20563;-64
2023/02/26 12:51:40;;;;;;;1.27;1.27;;;3.40;98.00;;;;;;4987428;28;20454;-64
2023/02/26 12:54:25;;;;;;;1.83;1.17;;;3.30;98.00;;;;;;5034068;28;20462;-64
2023/02/26 12:57:14;;;;;;;3.07;1.60;;;3.30;98.00;;;;;;5034015;28;20952;-64
2023/02/26 13:00:26;;;;;;;2.60;1.30;;;3.30;98.00;;;;;;5018307;28;20513;-65
2023/02/26 13:03:20;;;;;;;1.93;1.43;;;3.30;98.00;;;;;;5008438;28;20945;-64
2023/02/26 13:06:15;;;;;;;2.63;1.40;;;3.20;98.00;;;;;;5020092;28;20475;-65
2023/02/26 13:08:49;;;;;;;1.87;1.63;;;3.30;98.00;;;;;;4994533;28;20472;-64
2023/02/26 13:11:28;;;;;;;4.00;1.30;;;3.40;98.00;;;;;;4994309;28;20776;-64
2023/02/26 13:14:10;;;;;;;1.50;1.20;;;3.50;98.00;;;;;;4994459;28;20463;-65